Terminal Aerodrome Forecast
Issued by NWS Tulsa, OK

Home | Current Version | Previous Version | Text Only | Print | Product List | Glossary On
Versions: 1 2 3 4 5 6 7 8 9 10 11 12 13 14
670
FTUS44 KTSA 181948 AAA
TAFFSM
TAF AMD
KFSM 181948Z 1820/1918 07005KT P6SM OVC008
      TEMPO 1820/1824 SCT008 OVC015
     FM190000 07004KT P6SM SCT005 OVC015
     FM190400 07004KT 3SM BR OVC005=

USA.gov is the U.S. government's official web portal to all federal, state and local government web resources and services.